createdAt,value
2023-04-08T00:02:06.646Z,7.60
2023-04-08T00:04:33.717Z,7.70
2023-04-08T00:07:00.698Z,7.80
2023-04-08T00:09:27.509Z,7.90
2023-04-08T00:11:54.277Z,7.90
2023-04-08T00:14:21.159Z,8.00
2023-04-08T00:16:47.976Z,8.00
2023-04-08T00:19:14.843Z,8.00
2023-04-08T00:21:41.643Z,8.00
2023-04-08T00:24:08.446Z,8.00
2023-04-08T00:26:35.448Z,7.90
2023-04-08T00:29:02.232Z,7.90
2023-04-08T00:31:29.136Z,7.80
2023-04-08T00:33:56.153Z,7.80
2023-04-08T00:36:22.980Z,7.80
2023-04-08T00:38:50.038Z,7.80
2023-04-08T00:41:17.012Z,7.80
2023-04-08T00:43:43.948Z,7.80
2023-04-08T00:46:10.795Z,7.80
2023-04-08T00:48:37.638Z,7.90
2023-04-08T00:51:04.601Z,7.90
2023-04-08T00:53:31.515Z,7.90
2023-04-08T00:55:59.975Z,7.90
2023-04-08T00:58:26.835Z,7.90
2023-04-08T01:02:06.446Z,7.80
2023-04-08T01:05:07.770Z,7.90
2023-04-08T01:07:36.052Z,7.80
2023-04-08T01:10:15.731Z,7.80
2023-04-08T01:12:44.424Z,7.80
2023-04-08T01:15:11.812Z,7.80
2023-04-08T01:17:38.586Z,7.90
2023-04-08T01:20:06.146Z,8.00
2023-04-08T01:22:42.319Z,8.00
2023-04-08T01:25:30.414Z,8.10
2023-04-08T01:27:57.722Z,8.20
2023-04-08T01:30:25.228Z,8.20
2023-04-08T01:32:53.584Z,8.20
2023-04-08T01:35:20.518Z,8.20
2023-04-08T01:37:47.386Z,8.20
2023-04-08T01:40:14.378Z,8.20
2023-04-08T01:42:41.417Z,8.20
2023-04-08T01:45:08.488Z,8.20
2023-04-08T01:47:35.474Z,8.20
2023-04-08T01:50:02.389Z,8.20
2023-04-08T01:52:29.303Z,8.20
2023-04-08T01:54:56.376Z,8.20
2023-04-08T01:57:24.558Z,8.20
2023-04-08T01:59:52.516Z,8.20
2023-04-08T02:02:22.477Z,8.10
2023-04-08T02:04:49.566Z,8.10
2023-04-08T02:07:16.449Z,8.10
2023-04-08T02:09:43.266Z,8.10
2023-04-08T02:12:10.270Z,8.10
2023-04-08T02:14:37.135Z,8.10
2023-04-08T02:17:35.747Z,8.10
2023-04-08T02:20:17.015Z,8.10
2023-04-08T02:22:44.926Z,8.10
2023-04-08T02:25:16.136Z,8.00
2023-04-08T02:27:43.758Z,8.00
2023-04-08T02:30:11.745Z,7.90
2023-04-08T02:32:39.075Z,7.90
2023-04-08T02:35:06.625Z,7.90
2023-04-08T02:37:33.477Z,7.90
2023-04-08T02:40:00.262Z,8.00
2023-04-08T02:42:27.089Z,8.00
2023-04-08T02:44:53.930Z,8.00
2023-04-08T02:47:21.161Z,8.00
2023-04-08T02:49:47.910Z,8.00
2023-04-08T02:52:14.639Z,8.00
2023-04-08T02:54:41.476Z,7.90
2023-04-08T02:57:08.290Z,7.80
2023-04-08T02:59:37.704Z,7.80
2023-04-08T03:02:04.598Z,7.80
2023-04-08T03:04:31.464Z,7.80
2023-04-08T03:06:58.335Z,7.80
2023-04-08T03:09:25.462Z,7.70
2023-04-08T03:11:53.159Z,7.60
2023-04-08T03:14:21.118Z,7.70
2023-04-08T03:16:47.945Z,7.70
2023-04-08T03:19:14.952Z,7.70
2023-04-08T03:21:41.752Z,7.80
2023-04-08T03:24:08.478Z,7.80
2023-04-08T03:26:35.333Z,7.80
2023-04-08T03:29:02.195Z,7.80
2023-04-08T03:31:29.373Z,7.80
2023-04-08T03:33:56.300Z,7.80
2023-04-08T03:36:23.103Z,7.80
2023-04-08T03:38:50.026Z,7.70
2023-04-08T03:41:16.994Z,7.70
2023-04-08T03:43:43.950Z,7.70
2023-04-08T03:46:10.910Z,7.80
2023-04-08T03:48:37.857Z,7.80
2023-04-08T03:51:04.661Z,7.80
2023-04-08T03:53:31.649Z,7.70
2023-04-08T03:55:58.462Z,7.70
2023-04-08T03:58:25.339Z,7.70
2023-04-08T04:00:52.156Z,7.70
2023-04-08T04:03:19.078Z,7.70
2023-04-08T04:05:45.976Z,7.70
2023-04-08T04:08:12.823Z,7.70
2023-04-08T04:10:39.620Z,7.60
2023-04-08T04:13:06.638Z,7.50
2023-04-08T04:15:33.528Z,7.50
2023-04-08T04:18:00.399Z,7.40
2023-04-08T04:20:29.328Z,7.40
2023-04-08T04:22:56.158Z,7.40
2023-04-08T04:25:23.246Z,7.30
2023-04-08T04:27:50.097Z,7.20
2023-04-08T04:30:17.202Z,7.20
2023-04-08T04:32:44.023Z,7.20
2023-04-08T04:35:11.539Z,7.10
2023-04-08T04:37:38.457Z,7.10
2023-04-08T04:40:06.040Z,7.10
2023-04-08T04:42:33.186Z,7.10
2023-04-08T04:45:00.370Z,7.10
2023-04-08T04:47:27.212Z,7.20
2023-04-08T04:49:54.075Z,7.20
2023-04-08T04:52:20.874Z,7.20
2023-04-08T04:54:47.695Z,7.20
2023-04-08T04:57:14.756Z,7.20
2023-04-08T04:59:41.769Z,7.20
2023-04-08T05:02:08.672Z,7.30
2023-04-08T05:04:36.073Z,7.30
2023-04-08T05:07:02.912Z,7.40
2023-04-08T05:09:29.970Z,7.50
2023-04-08T05:11:56.932Z,7.50
2023-04-08T05:14:23.706Z,7.60
2023-04-08T05:16:50.763Z,7.70
2023-04-08T05:19:17.588Z,7.70
2023-04-08T05:21:44.490Z,7.70
2023-04-08T05:24:11.886Z,7.70
2023-04-08T05:26:38.712Z,7.80
2023-04-08T05:29:05.548Z,7.80
2023-04-08T05:31:32.441Z,7.90
2023-04-08T05:33:59.226Z,7.90
2023-04-08T05:36:27.385Z,7.90
2023-04-08T05:38:54.160Z,8.00
2023-04-08T05:41:21.429Z,8.10
2023-04-08T05:43:48.238Z,8.00
2023-04-08T05:46:15.095Z,8.10
2023-04-08T05:48:42.019Z,8.10
2023-04-08T05:51:17.887Z,8.30
2023-04-08T05:53:47.841Z,8.40
2023-04-08T05:56:15.133Z,8.60
2023-04-08T05:58:41.884Z,8.80
2023-04-08T06:01:08.724Z,9.00
2023-04-08T06:03:35.785Z,9.20
2023-04-08T06:06:02.714Z,9.50
2023-04-08T06:08:29.686Z,9.60
2023-04-08T06:10:56.565Z,9.80
2023-04-08T06:13:25.578Z,10.00
2023-04-08T06:15:52.405Z,10.40
2023-04-08T06:18:19.188Z,10.80
2023-04-08T06:20:46.507Z,11.40
2023-04-08T06:23:13.658Z,11.80
2023-04-08T06:25:40.404Z,12.10
2023-04-08T06:28:07.223Z,12.30
2023-04-08T06:30:34.132Z,12.60
2023-04-08T06:33:01.111Z,12.70
2023-04-08T06:35:28.395Z,12.90
2023-04-08T06:37:55.291Z,12.90
2023-04-08T06:40:22.127Z,12.90
2023-04-08T06:42:49.109Z,12.80
2023-04-08T06:45:15.905Z,12.80
2023-04-08T06:47:42.763Z,12.80
2023-04-08T06:50:10.328Z,12.70
2023-04-08T06:52:37.154Z,12.70
2023-04-08T06:55:04.173Z,12.60
2023-04-08T06:57:30.959Z,12.70
2023-04-08T06:59:57.779Z,12.80
2023-04-08T07:02:24.831Z,12.90
2023-04-08T07:04:51.779Z,13.00
2023-04-08T07:07:18.624Z,13.00
2023-04-08T07:09:46.836Z,13.20
2023-04-08T07:12:13.656Z,13.40
2023-04-08T07:14:40.436Z,13.60
2023-04-08T07:17:07.242Z,13.80
2023-04-08T07:19:34.056Z,14.00
2023-04-08T07:22:00.823Z,14.20
2023-04-08T07:24:27.574Z,14.60
2023-04-08T07:26:56.261Z,14.90
2023-04-08T07:29:23.236Z,15.10
2023-04-08T07:31:49.964Z,15.30
2023-04-08T07:34:16.681Z,15.50
2023-04-08T07:36:43.613Z,15.60
2023-04-08T07:39:10.451Z,15.60
2023-04-08T07:41:37.278Z,15.60
2023-04-08T07:44:04.080Z,15.80
2023-04-08T07:46:31.628Z,16.20
2023-04-08T07:48:58.571Z,16.60
2023-04-08T07:51:25.359Z,17.00
2023-04-08T07:53:52.092Z,17.20
2023-04-08T07:56:18.879Z,17.30
2023-04-08T07:58:46.370Z,17.40
2023-04-08T08:01:21.990Z,17.70
2023-04-08T08:03:49.885Z,17.70
2023-04-08T08:06:16.955Z,17.90
2023-04-08T08:08:43.859Z,18.30
2023-04-08T08:11:10.674Z,18.70
2023-04-08T08:13:37.460Z,19.00
2023-04-08T08:16:04.444Z,19.40
2023-04-08T08:18:31.281Z,19.60
2023-04-08T08:20:58.074Z,20.00
2023-04-08T08:23:24.853Z,20.70
2023-04-08T08:25:59.878Z,21.40
2023-04-08T08:28:26.694Z,22.10
2023-04-08T08:30:53.563Z,22.40
2023-04-08T08:33:20.470Z,22.30
2023-04-08T08:35:47.325Z,22.60
2023-04-08T08:38:14.220Z,23.00
2023-04-08T08:40:41.246Z,23.00
2023-04-08T08:43:08.002Z,23.30
2023-04-08T08:45:34.792Z,23.60
2023-04-08T08:48:01.636Z,23.40
2023-04-08T08:50:28.602Z,23.40
2023-04-08T08:52:55.468Z,23.80
2023-04-08T08:55:39.617Z,24.10
2023-04-08T08:58:08.692Z,24.70
2023-04-08T09:00:36.472Z,25.40
2023-04-08T09:03:22.426Z,26.40
2023-04-08T09:05:50.867Z,27.00
2023-04-08T09:08:27.585Z,27.60
2023-04-08T09:10:55.397Z,28.30
2023-04-08T09:13:25.563Z,28.50
2023-04-08T09:16:05.614Z,28.50
2023-04-08T09:18:33.503Z,28.50
2023-04-08T09:21:01.996Z,28.40
2023-04-08T09:23:44.765Z,28.60
2023-04-08T09:26:20.298Z,28.90
2023-04-08T09:29:18.267Z,29.00
2023-04-08T09:31:58.417Z,28.70
2023-04-08T09:34:25.798Z,28.40
2023-04-08T09:36:53.053Z,28.20
2023-04-08T09:39:20.425Z,28.00
2023-04-08T09:41:51.134Z,27.60
2023-04-08T09:44:19.377Z,27.10
2023-04-08T09:47:13.134Z,26.80
2023-04-08T09:50:01.984Z,26.60
2023-04-08T09:52:34.237Z,26.90
2023-04-08T09:55:09.331Z,27.10
2023-04-08T09:57:50.878Z,27.10
2023-04-08T10:00:18.137Z,27.30
2023-04-08T10:03:09.234Z,27.30
2023-04-08T10:05:38.056Z,27.50
2023-04-08T10:08:06.186Z,27.70
2023-04-08T10:10:37.106Z,27.70
2023-04-08T10:13:04.656Z,27.80
2023-04-08T10:15:32.257Z,27.90
2023-04-08T10:18:08.174Z,26.90
2023-04-08T10:20:35.017Z,26.00
2023-04-08T10:23:05.483Z,25.50
2023-04-08T10:25:38.710Z,25.30
2023-04-08T10:28:11.759Z,24.90
2023-04-08T10:30:38.550Z,24.20
2023-04-08T10:33:10.566Z,23.40
2023-04-08T10:35:38.104Z,22.80
2023-04-08T10:38:04.933Z,22.60
2023-04-08T10:40:38.863Z,22.50
2023-04-08T10:43:06.037Z,22.10
2023-04-08T10:45:33.108Z,21.90
2023-04-08T10:48:23.449Z,21.90
2023-04-08T10:51:06.534Z,21.60
2023-04-08T10:53:35.538Z,21.70
2023-04-08T10:56:17.834Z,21.60
2023-04-08T10:58:56.413Z,21.50
2023-04-08T11:01:23.608Z,20.90
2023-04-08T11:03:51.036Z,20.20
2023-04-08T11:06:18.370Z,19.70
2023-04-08T11:08:45.367Z,19.30
2023-04-08T11:11:12.298Z,19.10
2023-04-08T11:13:51.963Z,19.20
2023-04-08T11:16:19.373Z,19.60
2023-04-08T11:18:46.306Z,20.00
2023-04-08T11:21:13.257Z,20.30
2023-04-08T11:23:40.216Z,20.30
2023-04-08T11:26:07.025Z,20.10
2023-04-08T11:28:35.451Z,19.50
2023-04-08T11:31:05.826Z,19.20
2023-04-08T11:33:32.994Z,19.50
2023-04-08T11:36:01.668Z,19.40
2023-04-08T11:38:28.528Z,19.60
2023-04-08T11:40:56.049Z,19.80
2023-04-08T11:43:23.446Z,19.70
2023-04-08T11:45:50.360Z,19.00
2023-04-08T11:48:17.564Z,19.00
2023-04-08T11:50:44.748Z,19.30
2023-04-08T11:53:36.716Z,19.60
2023-04-08T11:56:23.463Z,19.70
2023-04-08T11:58:50.734Z,19.90
2023-04-08T12:01:17.937Z,19.60
2023-04-08T12:03:55.213Z,19.40
2023-04-08T12:06:23.377Z,19.10
2023-04-08T12:08:50.458Z,18.80
2023-04-08T12:11:20.034Z,18.70
2023-04-08T12:13:47.424Z,18.90
2023-04-08T12:16:14.403Z,18.80
2023-04-08T12:18:41.688Z,19.10
2023-04-08T12:21:08.725Z,19.40
2023-04-08T12:23:35.607Z,19.60
2023-04-08T12:26:02.484Z,19.80
2023-04-08T12:28:29.344Z,19.70
2023-04-08T12:30:56.146Z,19.60
2023-04-08T12:33:22.886Z,19.40
2023-04-08T12:35:49.831Z,18.90
2023-04-08T12:38:16.657Z,18.90
2023-04-08T12:40:43.485Z,18.60
2023-04-08T12:43:10.301Z,18.40
2023-04-08T12:45:37.147Z,18.10
2023-04-08T12:48:04.128Z,17.80
2023-04-08T12:50:31.523Z,17.70
2023-04-08T12:52:58.277Z,17.70
2023-04-08T12:55:25.236Z,17.80
2023-04-08T12:57:52.809Z,18.20
2023-04-08T13:00:19.651Z,18.40
2023-04-08T13:02:47.003Z,18.60
2023-04-08T13:05:13.880Z,18.90
2023-04-08T13:07:41.471Z,19.10
2023-04-08T13:10:09.163Z,19.10
2023-04-08T13:12:36.113Z,19.00
2023-04-08T13:15:02.977Z,18.80
2023-04-08T13:17:29.783Z,18.20
2023-04-08T13:19:56.646Z,17.70
2023-04-08T13:22:23.438Z,17.30
2023-04-08T13:24:50.294Z,17.20
2023-04-08T13:27:17.537Z,17.10
2023-04-08T13:29:44.648Z,17.00
2023-04-08T13:32:11.865Z,16.70
2023-04-08T13:34:38.689Z,16.50
2023-04-08T13:37:05.518Z,16.50
2023-04-08T13:39:32.360Z,16.80
2023-04-08T13:41:59.181Z,17.00
2023-04-08T13:44:26.038Z,17.00
2023-04-08T13:46:53.182Z,16.80
2023-04-08T13:49:20.513Z,16.90
2023-04-08T13:51:47.326Z,17.10
2023-04-08T13:54:14.137Z,17.20
2023-04-08T13:56:40.910Z,17.20
2023-04-08T13:59:07.784Z,17.00
2023-04-08T14:01:34.727Z,16.70
2023-04-08T14:04:01.621Z,16.40
2023-04-08T14:06:28.398Z,16.10
2023-04-08T14:08:55.284Z,16.00
2023-04-08T14:11:22.440Z,15.80
2023-04-08T14:13:49.233Z,15.80
2023-04-08T14:19:42.013Z,15.80
2023-04-08T14:22:08.692Z,16.00
2023-04-08T14:24:35.585Z,16.20
2023-04-08T14:27:02.299Z,16.40
2023-04-08T14:29:28.997Z,16.60
2023-04-08T14:31:55.685Z,16.80
2023-04-08T14:34:22.562Z,16.90
2023-04-08T14:36:49.332Z,16.90
2023-04-08T14:39:16.076Z,16.70
2023-04-08T14:41:42.840Z,16.50
2023-04-08T14:44:09.560Z,16.60
2023-04-08T14:46:36.383Z,16.60
2023-04-08T14:49:03.214Z,16.60
2023-04-08T14:51:31.516Z,16.20
2023-04-08T14:53:58.331Z,16.00
2023-04-08T14:56:24.985Z,15.80
2023-04-08T14:58:51.820Z,15.60
2023-04-08T15:01:18.894Z,15.60
2023-04-08T15:03:47.420Z,15.80
2023-04-08T15:06:17.671Z,16.10
2023-04-08T15:08:45.755Z,16.40
2023-04-08T15:11:12.636Z,16.60
2023-04-08T15:13:39.350Z,16.50
2023-04-08T15:16:06.240Z,16.30
2023-04-08T15:18:33.009Z,16.20
2023-04-08T15:20:59.841Z,16.10
2023-04-08T15:23:27.235Z,16.00
2023-04-08T15:25:54.007Z,15.80
2023-04-08T15:28:20.781Z,15.40
2023-04-08T15:30:47.562Z,15.00
2023-04-08T15:33:14.578Z,14.80
2023-04-08T15:35:41.722Z,14.70
2023-04-08T15:38:08.477Z,14.70
2023-04-08T15:40:35.452Z,14.60
2023-04-08T15:43:02.177Z,14.70
2023-04-08T15:45:28.834Z,14.70
2023-04-08T15:47:55.679Z,14.80
2023-04-08T15:50:22.484Z,14.80
2023-04-08T15:52:49.209Z,14.60
2023-04-08T15:55:16.125Z,14.50
2023-04-08T15:57:43.035Z,14.50
2023-04-08T16:00:10.854Z,14.20
2023-04-08T16:02:37.787Z,14.00
2023-04-08T16:05:04.942Z,14.00
2023-04-08T16:07:31.690Z,14.00
2023-04-08T16:09:59.123Z,14.10
2023-04-08T16:12:26.044Z,14.20
2023-04-08T16:14:52.815Z,14.20
2023-04-08T16:17:19.532Z,14.30
2023-04-08T16:19:46.211Z,14.20
2023-04-08T16:22:12.907Z,14.10
2023-04-08T16:24:39.560Z,14.00
2023-04-08T16:27:06.696Z,13.90
2023-04-08T16:29:33.390Z,13.90
2023-04-08T16:32:00.149Z,13.80
2023-04-08T16:34:26.834Z,13.70
2023-04-08T16:36:53.705Z,13.70
2023-04-08T16:39:20.532Z,13.80
2023-04-08T16:41:47.823Z,13.70
2023-04-08T16:44:14.847Z,13.60
2023-04-08T16:46:41.552Z,13.50
2023-04-08T16:49:08.266Z,13.30
2023-04-08T16:51:34.978Z,13.20
2023-04-08T16:54:01.680Z,13.10
2023-04-08T16:56:28.916Z,13.00
2023-04-08T16:58:55.635Z,12.90
2023-04-08T17:01:22.349Z,12.80
2023-04-08T17:03:50.224Z,12.70
2023-04-08T17:06:17.733Z,12.70
2023-04-08T17:08:44.476Z,12.80
2023-04-08T17:11:12.985Z,12.80
2023-04-08T17:13:40.471Z,12.80
2023-04-08T17:16:07.435Z,12.80
2023-04-08T17:18:34.511Z,12.80
2023-04-08T17:21:01.591Z,12.70
2023-04-08T17:23:28.333Z,12.60
2023-04-08T17:25:55.095Z,12.70
2023-04-08T17:28:22.013Z,12.70
2023-04-08T17:30:48.915Z,12.60
2023-04-08T17:33:15.663Z,12.60
2023-04-08T17:35:42.449Z,12.50
2023-04-08T17:38:09.617Z,12.40
2023-04-08T17:40:36.514Z,12.40
2023-04-08T17:43:03.252Z,12.40
2023-04-08T17:45:29.971Z,12.40
2023-04-08T17:47:58.762Z,12.50
2023-04-08T17:50:25.575Z,12.50
2023-04-08T17:52:52.304Z,12.40
2023-04-08T17:55:19.072Z,12.40
2023-04-08T17:57:47.036Z,12.40
2023-04-08T18:00:13.880Z,12.40
2023-04-08T18:02:41.904Z,12.30
2023-04-08T18:05:09.242Z,12.30
2023-04-08T18:07:36.140Z,12.40
2023-04-08T18:10:03.002Z,12.50
2023-04-08T18:12:30.476Z,12.50
2023-04-08T18:15:00.182Z,12.50
2023-04-08T18:17:27.744Z,12.50
2023-04-08T18:19:54.584Z,12.50
2023-04-08T18:22:22.521Z,12.50
2023-04-08T18:24:49.396Z,12.50
2023-04-08T18:27:17.118Z,12.40
2023-04-08T18:29:43.871Z,12.40
2023-04-08T18:32:10.644Z,12.40
2023-04-08T18:34:38.911Z,12.40
2023-04-08T18:37:05.654Z,12.30
2023-04-08T18:39:32.386Z,12.30
2023-04-08T18:41:59.135Z,12.30
2023-04-08T18:44:25.883Z,12.30
2023-04-08T18:46:52.701Z,12.20
2023-04-08T18:49:19.443Z,12.20
2023-04-08T18:51:59.025Z,12.20
2023-04-08T18:54:28.283Z,12.20
2023-04-08T18:56:54.997Z,12.10
2023-04-08T18:59:21.714Z,12.10
2023-04-08T19:01:48.554Z,12.10
2023-04-08T19:04:15.736Z,12.10
2023-04-08T19:06:42.698Z,12.10
2023-04-08T19:09:09.418Z,12.10
2023-04-08T19:11:36.189Z,12.00
2023-04-08T19:14:02.882Z,12.00
2023-04-08T19:16:29.603Z,12.00
2023-04-08T19:18:56.883Z,12.00
2023-04-08T19:21:23.692Z,12.00
2023-04-08T19:23:50.741Z,11.90
2023-04-08T19:26:17.639Z,11.90
2023-04-08T19:28:44.310Z,11.90
2023-04-08T19:31:17.868Z,11.80
2023-04-08T19:33:44.838Z,11.80
2023-04-08T19:36:11.782Z,11.80
2023-04-08T19:38:38.746Z,11.80
2023-04-08T19:41:05.871Z,11.70
2023-04-08T19:43:32.791Z,11.70
2023-04-08T19:45:59.724Z,11.70
2023-04-08T19:48:26.693Z,11.60
2023-04-08T19:50:53.615Z,11.60
2023-04-08T19:53:20.529Z,11.60
2023-04-08T19:55:47.327Z,11.60
2023-04-08T19:58:14.155Z,11.60
2023-04-08T20:00:40.976Z,11.50
2023-04-08T20:03:08.191Z,11.50
2023-04-08T20:05:35.183Z,11.40
2023-04-08T20:08:01.979Z,11.40
2023-04-08T20:10:28.794Z,11.40
2023-04-08T20:12:55.692Z,11.40
2023-04-08T20:15:25.149Z,11.30
2023-04-08T20:17:53.100Z,11.30
2023-04-08T20:20:20.331Z,11.30
2023-04-08T20:22:47.165Z,11.20
2023-04-08T20:25:14.008Z,11.20
2023-04-08T20:27:41.352Z,11.10
2023-04-08T20:30:09.427Z,11.00
2023-04-08T20:32:36.444Z,10.90
2023-04-08T20:35:04.539Z,10.90
2023-04-08T20:37:32.414Z,10.80
2023-04-08T20:39:59.209Z,10.80
2023-04-08T20:42:25.986Z,10.70
2023-04-08T20:44:53.772Z,10.70
2023-04-08T20:47:20.919Z,10.60
2023-04-08T20:49:48.216Z,10.60
2023-04-08T20:52:15.081Z,10.60
2023-04-08T20:54:41.876Z,10.60
2023-04-08T20:57:08.750Z,10.60
2023-04-08T20:59:35.611Z,10.60
2023-04-08T21:02:03.559Z,10.50
2023-04-08T21:04:30.369Z,10.60
2023-04-08T21:06:57.130Z,10.60
2023-04-08T21:09:24.020Z,10.60
2023-04-08T21:11:50.790Z,10.60
2023-04-08T21:14:17.538Z,10.60
2023-04-08T21:16:44.394Z,10.50
2023-04-08T21:19:11.367Z,10.50
2023-04-08T21:21:38.235Z,10.50
2023-04-08T21:24:07.099Z,10.50
2023-04-08T21:26:33.957Z,10.40
2023-04-08T21:29:00.778Z,10.40
2023-04-08T21:31:27.657Z,10.40
2023-04-08T21:33:54.693Z,10.50
2023-04-08T21:36:21.537Z,10.50
2023-04-08T21:38:48.339Z,10.50
2023-04-08T21:41:15.156Z,10.50
2023-04-08T21:43:42.070Z,10.50
2023-04-08T21:46:08.883Z,10.30
2023-04-08T21:48:36.026Z,10.20
2023-04-08T21:51:02.946Z,10.20
2023-04-08T21:53:29.742Z,10.10
2023-04-08T21:55:56.703Z,10.00
2023-04-08T21:58:23.492Z,10.00
2023-04-08T22:00:50.756Z,9.90
2023-04-08T22:03:17.974Z,9.80
2023-04-08T22:05:44.900Z,9.80
2023-04-08T22:08:12.341Z,9.80
2023-04-08T22:10:39.142Z,9.80
2023-04-08T22:13:05.977Z,9.90
2023-04-08T22:15:32.766Z,9.90
2023-04-08T22:18:00.325Z,10.00
2023-04-08T22:20:27.380Z,9.90
2023-04-08T22:22:54.280Z,9.80
2023-04-08T22:25:21.085Z,9.90
2023-04-08T22:27:47.824Z,9.90
2023-04-08T22:30:14.633Z,10.00
2023-04-08T22:32:41.521Z,10.00
2023-04-08T22:35:08.990Z,10.00
2023-04-08T22:37:35.885Z,10.10
2023-04-08T22:40:02.763Z,10.10
2023-04-08T22:42:29.584Z,10.10
2023-04-08T22:44:56.984Z,10.10
2023-04-08T22:47:23.775Z,10.20
2023-04-08T22:49:50.844Z,10.20
2023-04-08T22:52:17.629Z,10.20
2023-04-08T22:54:44.434Z,10.10
2023-04-08T22:57:11.279Z,10.10
2023-04-08T22:59:38.049Z,10.10
2023-04-08T23:02:05.121Z,10.10
2023-04-08T23:04:32.088Z,10.20
2023-04-08T23:06:58.978Z,10.20
2023-04-08T23:09:27.151Z,10.20
2023-04-08T23:11:54.006Z,10.20
2023-04-08T23:14:20.756Z,10.20
2023-04-08T23:16:47.474Z,10.30
2023-04-08T23:19:14.326Z,10.30
2023-04-08T23:21:41.135Z,10.30
2023-04-08T23:24:08.125Z,10.20
2023-04-08T23:26:34.970Z,10.20
2023-04-08T23:29:01.832Z,10.20
2023-04-08T23:31:28.727Z,10.20
2023-04-08T23:33:55.666Z,10.20
2023-04-08T23:36:22.484Z,10.20
2023-04-08T23:38:50.354Z,10.10
2023-04-08T23:41:17.378Z,10.00
2023-04-08T23:43:44.180Z,10.00
2023-04-08T23:46:10.922Z,10.00
2023-04-08T23:48:37.813Z,10.00
2023-04-08T23:51:04.917Z,10.00
2023-04-08T23:53:31.692Z,10.00
2023-04-08T23:56:08.368Z,10.00
2023-04-08T23:58:35.252Z,10.00
